Smith, Canada
Current Conditions -  °F | °C
As of 6:27 AM on Monday 22 Dec 2014 (Local Time) from CYZH Reporting Station
Light Snow Light Snow  
Wind Chill:   Ceiling: 300
Heat Index: 21°   Visibility: 2mi
Dew Point: 21°   Wind: 12mph
Humidity: 100%   Direction: 310°NW
Pressure: 29.73"   Gusts: 18mph
Location:  55.17°N, 114.03°W
Report Text: CYZH 221327Z AUTO 31010G16KT 2SM -SN BKN003 OVC012 M06/M06 A2973 RMK SLP102
Loading
Personal Weather Stations






























Interactive Weather Map New forecast layout! Learn more

10-Day Weather Forecast

Advertisements
Track Severe Weather on mobile